Time;durP1;ratioP1;P1;durP2;ratioP2;P2;SDS_P1;SDS_P2;PMS_P1;PMS_P2;Temp;Humidity;BMP_temperature;BMP_pressure;BME280_temperature;BME280_humidity;BME280_pressure;Samples;Min_cycle;Max_cycle;Signal;HPM_P1;HPM_P2
2020/12/03 00:00:30;;;;;;;64.25;25.27;;;1.20;73.40;;;;;;5020096;28;20069;-61
2020/12/03 00:02:57;;;;;;;62.88;25.25;;;1.20;73.40;;;;;;5009370;28;20041;-61
2020/12/03 00:05:23;;;;;;;60.67;25.98;;;1.10;73.20;;;;;;5020328;28;20245;-61
2020/12/03 00:07:49;;;;;;;60.55;24.35;;;1.20;73.60;;;;;;5025423;28;20085;-61
2020/12/03 00:10:15;;;;;;;61.80;26.85;;;1.20;72.70;;;;;;5021663;28;20045;-61
2020/12/03 00:12:41;;;;;;;59.47;24.52;;;1.20;73.00;;;;;;5018601;28;20057;-61
2020/12/03 00:15:06;;;;;;;60.85;24.50;;;1.00;73.10;;;;;;5020345;28;20040;-61
2020/12/03 00:17:32;;;;;;;60.70;23.88;;;1.00;73.10;;;;;;5024983;28;20033;-61
2020/12/03 00:20:15;;;;;;;52.03;23.05;;;1.00;73.30;;;;;;5021054;28;20299;-61
2020/12/03 00:22:41;;;;;;;57.13;23.20;;;1.00;73.10;;;;;;5021625;28;20045;-61
2020/12/03 00:25:07;;;;;;;53.10;23.02;;;1.10;73.10;;;;;;5020338;28;20202;-61
2020/12/03 00:27:33;;;;;;;54.13;22.88;;;1.20;72.70;;;;;;5018438;28;20041;-61
2020/12/03 00:29:58;;;;;;;51.65;23.42;;;1.30;72.70;;;;;;5019939;28;20076;-61
2020/12/03 00:32:24;;;;;;;55.42;23.13;;;1.40;72.70;;;;;;5024926;28;20049;-61
2020/12/03 00:34:49;;;;;;;53.78;23.40;;;1.30;72.30;;;;;;5005963;28;20073;-61
2020/12/03 00:37:15;;;;;;;52.88;23.85;;;1.40;72.60;;;;;;5023206;28;20037;-61
2020/12/03 00:39:41;;;;;;;54.13;23.48;;;1.40;72.50;;;;;;5049556;28;20104;-61
2020/12/03 00:42:06;;;;;;;51.53;22.55;;;1.30;72.70;;;;;;5040859;28;20083;-61
2020/12/03 00:44:32;;;;;;;47.63;22.17;;;1.40;72.30;;;;;;5044781;28;20052;-60
2020/12/03 00:46:57;;;;;;;52.42;22.20;;;1.30;72.30;;;;;;5024167;28;20053;-61
2020/12/03 00:49:23;;;;;;;50.47;22.13;;;1.40;71.90;;;;;;5028910;28;20052;-61
2020/12/03 00:51:49;;;;;;;50.03;21.88;;;1.30;72.90;;;;;;5034507;28;20268;-60
2020/12/03 00:54:15;;;;;;;46.80;22.83;;;1.40;72.20;;;;;;5024727;28;20034;-61
2020/12/03 00:56:41;;;;;;;46.83;21.67;;;1.50;72.30;;;;;;5018352;28;20041;-61
2020/12/03 00:59:06;;;;;;;48.42;21.92;;;1.50;72.30;;;;;;5017335;28;20042;-60
2020/12/03 01:01:33;;;;;;;52.03;22.88;;;1.30;71.80;;;;;;5020245;28;20034;-61
2020/12/03 01:03:58;;;;;;;52.17;22.83;;;1.40;72.10;;;;;;5017853;28;20097;-62
2020/12/03 01:06:24;;;;;;;46.63;22.20;;;1.40;71.70;;;;;;5024273;28;20037;-61
2020/12/03 01:08:49;;;;;;;49.80;22.80;;;1.50;71.70;;;;;;5037533;28;20042;-61
2020/12/03 01:11:19;;;;;;;50.65;24.00;;;1.50;71.60;;;;;;5039700;28;20069;-61
2020/12/03 01:13:44;;;;;;;48.17;23.50;;;1.60;71.80;;;;;;5040802;28;20037;-61
2020/12/03 01:16:13;;;;;;;49.30;22.73;;;1.60;71.30;;;;;;5038302;28;20030;-61
2020/12/03 01:18:39;;;;;;;44.75;22.38;;;1.40;70.50;;;;;;5043937;28;20041;-60
2020/12/03 01:21:04;;;;;;;49.30;22.67;;;1.50;71.20;;;;;;5039218;28;20092;-61
2020/12/03 01:23:30;;;;;;;53.22;23.45;;;1.50;70.90;;;;;;5038222;28;20068;-61
2020/12/03 01:25:55;;;;;;;44.33;21.48;;;1.50;71.00;;;;;;5037627;28;20041;-61
2020/12/03 01:28:21;;;;;;;49.72;23.35;;;1.40;71.30;;;;;;4984468;28;20060;-62
2020/12/03 01:30:46;;;;;;;46.25;22.10;;;1.50;71.20;;;;;;5044313;28;20261;-61
2020/12/03 01:33:12;;;;;;;51.90;23.63;;;1.50;71.40;;;;;;5041478;28;20033;-61
2020/12/03 01:35:37;;;;;;;47.97;22.83;;;1.50;71.50;;;;;;5041402;28;20045;-61
2020/12/03 01:38:03;;;;;;;52.08;23.25;;;1.50;71.80;;;;;;5041594;28;20228;-61
2020/12/03 01:40:28;;;;;;;51.15;22.63;;;1.60;71.40;;;;;;5041621;28;20375;-61
2020/12/03 01:42:54;;;;;;;57.85;24.05;;;1.20;71.80;;;;;;5043654;28;20061;-61
2020/12/03 01:45:44;;;;;;;50.80;23.55;;;1.40;71.70;;;;;;5040886;28;20048;-60
2020/12/03 01:48:38;;;;;;;51.88;22.63;;;1.40;72.00;;;;;;5039313;28;20042;-61
2020/12/03 01:51:18;;;;;;;52.45;24.17;;;1.40;72.30;;;;;;5038372;28;20248;-61
2020/12/03 01:53:44;;;;;;;50.35;22.55;;;1.30;71.30;;;;;;5039012;28;20056;-61
2020/12/03 01:56:32;;;;;;;54.05;23.20;;;1.30;72.00;;;;;;5072136;28;20371;-61
2020/12/03 01:58:59;;;;;;;46.88;21.27;;;1.60;72.60;;;;;;5041940;28;20041;-61
2020/12/03 02:01:24;;;;;;;52.45;23.50;;;1.60;71.80;;;;;;5043664;28;20092;-61
2020/12/03 02:03:50;;;;;;;53.00;23.75;;;1.50;71.90;;;;;;5047279;28;20072;-61
2020/12/03 02:06:23;;;;;;;51.63;20.95;;;1.60;72.00;;;;;;5043899;28;20049;-61
2020/12/03 02:08:49;;;;;;;48.92;21.92;;;1.50;71.20;;;;;;5042357;28;20076;-61
2020/12/03 02:11:16;;;;;;;51.58;22.50;;;1.50;70.90;;;;;;5044579;28;20360;-61
2020/12/03 02:13:59;;;;;;;47.97;21.40;;;1.40;71.30;;;;;;5043642;28;20037;-61
2020/12/03 02:16:26;;;;;;;46.42;19.58;;;1.50;71.00;;;;;;5043309;28;20036;-61
2020/12/03 02:18:52;;;;;;;47.70;21.27;;;1.50;70.70;;;;;;5047294;28;20139;-61
2020/12/03 02:21:17;;;;;;;44.33;19.45;;;1.50;70.30;;;;;;5044604;28;20108;-61
2020/12/03 02:23:43;;;;;;;43.55;19.88;;;1.50;70.70;;;;;;5044372;28;20044;-61
2020/12/03 02:26:09;;;;;;;42.65;18.73;;;1.60;69.70;;;;;;5042920;28;20100;-61
2020/12/03 02:28:35;;;;;;;47.40;20.35;;;1.60;70.30;;;;;;5043852;28;20041;-61
2020/12/03 02:31:00;;;;;;;48.70;19.25;;;1.60;70.40;;;;;;5046714;28;20044;-61
2020/12/03 02:33:26;;;;;;;50.05;20.45;;;1.50;69.50;;;;;;5041796;28;20036;-61
2020/12/03 02:35:52;;;;;;;43.88;20.10;;;1.50;70.60;;;;;;5041703;28;20084;-61
2020/12/03 02:38:17;;;;;;;43.20;20.13;;;1.60;70.70;;;;;;5042302;28;20107;-60
2020/12/03 02:40:43;;;;;;;45.42;19.73;;;1.50;69.60;;;;;;5046614;28;20029;-62
2020/12/03 02:43:08;;;;;;;44.85;19.15;;;1.50;69.50;;;;;;5041858;28;20045;-61
2020/12/03 02:45:34;;;;;;;42.20;19.80;;;1.40;69.30;;;;;;5041917;28;20033;-61
2020/12/03 02:47:59;;;;;;;45.67;20.58;;;1.40;69.30;;;;;;5034604;28;20042;-61
2020/12/03 02:50:25;;;;;;;44.25;19.13;;;1.40;69.70;;;;;;5027367;28;20100;-61
2020/12/03 02:52:50;;;;;;;47.42;20.30;;;1.50;69.80;;;;;;5046835;28;20095;-61
2020/12/03 02:55:16;;;;;;;47.70;20.00;;;1.50;69.40;;;;;;5044059;28;20375;-61
2020/12/03 02:57:41;;;;;;;45.97;19.45;;;1.40;69.30;;;;;;5030369;28;20084;-61
2020/12/03 03:00:07;;;;;;;46.63;19.10;;;1.40;69.30;;;;;;5031243;28;20277;-61
2020/12/03 03:02:32;;;;;;;48.10;20.58;;;1.30;69.30;;;;;;5021155;28;21457;-61
2020/12/03 03:04:58;;;;;;;43.40;18.75;;;1.30;69.70;;;;;;5026632;28;20030;-60
2020/12/03 03:07:24;;;;;;;50.03;19.98;;;1.30;69.90;;;;;;5024172;28;20391;-61
2020/12/03 03:09:49;;;;;;;46.38;19.88;;;1.20;69.80;;;;;;5022868;28;20038;-61
2020/12/03 03:12:15;;;;;;;46.97;21.80;;;1.20;69.70;;;;;;5023535;28;20046;-61
2020/12/03 03:14:40;;;;;;;50.97;21.35;;;1.20;70.40;;;;;;5022295;28;20037;-61
2020/12/03 03:17:06;;;;;;;48.35;22.48;;;1.10;70.60;;;;;;5026388;28;20068;-61
2020/12/03 03:19:31;;;;;;;48.63;21.35;;;1.20;70.60;;;;;;5023797;28;20034;-61
2020/12/03 03:21:57;;;;;;;51.17;22.27;;;1.20;70.60;;;;;;5021968;28;20329;-61
2020/12/03 03:24:22;;;;;;;50.28;22.80;;;1.20;71.10;;;;;;5023692;28;20037;-61
2020/12/03 03:26:48;;;;;;;51.70;20.98;;;1.20;71.50;;;;;;5020558;28;20095;-61
2020/12/03 03:29:14;;;;;;;50.15;22.15;;;1.30;71.30;;;;;;5025892;28;20198;-61
2020/12/03 03:31:39;;;;;;;51.88;21.15;;;1.40;70.70;;;;;;5038359;28;20037;-61
2020/12/03 03:34:05;;;;;;;47.95;21.42;;;1.30;70.30;;;;;;5060458;28;20092;-61
2020/12/03 03:36:31;;;;;;;54.55;22.13;;;1.20;70.80;;;;;;5032235;28;20037;-61
2020/12/03 03:38:56;;;;;;;54.30;22.38;;;1.20;70.90;;;;;;5043186;28;20140;-61
2020/12/03 03:41:22;;;;;;;54.60;22.65;;;1.20;71.00;;;;;;5046350;28;20025;-61
2020/12/03 03:43:47;;;;;;;49.83;22.27;;;1.20;71.10;;;;;;5041035;28;20039;-61
2020/12/03 03:46:13;;;;;;;51.85;22.20;;;1.30;71.10;;;;;;5041291;28;20052;-61
2020/12/03 03:48:39;;;;;;;51.65;21.55;;;1.30;71.40;;;;;;5032084;28;20249;-61
2020/12/03 03:51:04;;;;;;;47.20;21.02;;;1.30;71.90;;;;;;5027556;28;20061;-60
2020/12/03 03:53:30;;;;;;;50.38;21.60;;;1.30;71.20;;;;;;5045519;28;20217;-62
2020/12/03 03:55:56;;;;;;;51.03;21.73;;;1.30;70.90;;;;;;5042180;28;20044;-61
2020/12/03 03:58:22;;;;;;;52.10;21.55;;;1.20;71.30;;;;;;5026960;28;20037;-61
2020/12/03 04:00:47;;;;;;;51.30;21.05;;;1.30;71.70;;;;;;5019499;28;20090;-61
2020/12/03 04:03:15;;;;;;;48.85;20.88;;;1.40;71.30;;;;;;5022138;28;20028;-61
2020/12/03 04:05:42;;;;;;;52.38;22.48;;;1.40;71.30;;;;;;5045304;28;20021;-61
2020/12/03 04:08:07;;;;;;;53.03;22.92;;;1.40;70.90;;;;;;5043276;28;20029;-61
2020/12/03 04:10:33;;;;;;;55.28;22.55;;;1.40;71.40;;;;;;5042213;28;20044;-61
2020/12/03 04:12:58;;;;;;;51.63;21.50;;;1.40;71.70;;;;;;5034446;28;20364;-61
2020/12/03 04:15:24;;;;;;;53.33;21.27;;;1.30;71.60;;;;;;5021191;28;20026;-61
2020/12/03 04:17:49;;;;;;;47.65;21.65;;;1.30;71.80;;;;;;5025287;28;20032;-61
2020/12/03 04:20:16;;;;;;;49.38;21.02;;;1.40;71.30;;;;;;5020099;28;20112;-60
2020/12/03 04:22:43;;;;;;;50.35;21.83;;;1.20;71.00;;;;;;5032948;28;20333;-61
2020/12/03 04:25:09;;;;;;;51.72;21.13;;;1.20;71.40;;;;;;5041919;28;20394;-61
2020/12/03 04:27:35;;;;;;;48.20;21.00;;;1.20;71.40;;;;;;5041250;28;20220;-61
2020/12/03 04:30:00;;;;;;;51.50;20.67;;;1.20;71.40;;;;;;5044642;28;20032;-61
2020/12/03 04:32:26;;;;;;;50.45;21.70;;;1.20;71.60;;;;;;5042075;28;20361;-61
2020/12/03 04:34:52;;;;;;;56.72;23.48;;;1.10;71.80;;;;;;5042109;28;20033;-61
2020/12/03 04:37:17;;;;;;;50.45;20.40;;;1.10;72.10;;;;;;5031812;28;20042;-61
2020/12/03 04:39:43;;;;;;;50.67;21.98;;;1.10;72.00;;;;;;5024971;28;20087;-61
2020/12/03 04:42:26;;;;;;;45.13;21.23;;;1.10;71.80;;;;;;5044417;28;20217;-61
2020/12/03 04:44:52;;;;;;;50.38;20.52;;;1.20;71.80;;;;;;5043165;28;20264;-61
2020/12/03 04:47:43;;;;;;;51.35;20.83;;;1.00;72.10;;;;;;5036961;28;20037;-61
2020/12/03 04:50:50;;;;;;;58.33;21.70;;;1.00;72.60;;;;;;5040950;28;20039;-61
2020/12/03 04:53:47;;;;;;;53.35;20.70;;;0.90;72.90;;;;;;5039624;28;20272;-61
2020/12/03 04:56:44;;;;;;;51.22;21.77;;;1.00;72.60;;;;;;5038976;28;20224;-61
2020/12/03 04:59:37;;;;;;;49.88;21.08;;;0.90;72.50;;;;;;5038925;28;20048;-61
2020/12/03 05:02:24;;;;;;;51.58;20.65;;;1.00;72.70;;;;;;5041313;28;20108;-61
2020/12/03 05:05:23;;;;;;;49.38;21.20;;;0.90;72.90;;;;;;5041009;28;20283;-61
2020/12/03 05:08:02;;;;;;;50.55;20.13;;;0.80;73.10;;;;;;5041268;28;20025;-61
2020/12/03 05:10:30;;;;;;;51.10;20.23;;;0.90;72.90;;;;;;5040011;28;20029;-61
2020/12/03 05:12:56;;;;;;;50.13;20.98;;;0.90;73.00;;;;;;5037099;28;20069;-61
2020/12/03 05:15:24;;;;;;;48.03;19.83;;;0.90;72.70;;;;;;5043049;28;20038;-61
2020/12/03 05:17:55;;;;;;;53.75;20.90;;;0.90;73.20;;;;;;5023089;28;20072;-61
2020/12/03 05:20:31;;;;;;;46.67;19.50;;;0.80;73.10;;;;;;5020719;28;20049;-61
2020/12/03 05:23:22;;;;;;;46.03;20.00;;;0.70;73.40;;;;;;5020503;28;20221;-61
2020/12/03 05:25:48;;;;;;;47.35;19.77;;;0.70;73.20;;;;;;5020612;28;20033;-61
2020/12/03 05:28:37;;;;;;;51.75;20.48;;;0.50;73.10;;;;;;5021708;28;20034;-61
2020/12/03 05:31:24;;;;;;;47.58;18.90;;;0.40;74.20;;;;;;5019563;28;20186;-61
2020/12/03 05:33:50;;;;;;;50.25;20.52;;;0.50;74.10;;;;;;5045498;28;20265;-62
2020/12/03 05:36:24;;;;;;;50.72;19.95;;;0.60;73.60;;;;;;5045133;28;20041;-61
2020/12/03 05:38:50;;;;;;;46.60;19.23;;;0.60;73.60;;;;;;5045197;28;20086;-62
2020/12/03 05:41:16;;;;;;;48.45;19.42;;;0.50;73.90;;;;;;5041670;28;20065;-62
2020/12/03 05:43:42;;;;;;;52.95;21.02;;;0.60;74.10;;;;;;5045398;28;20267;-64
2020/12/03 05:46:07;;;;;;;50.17;21.27;;;0.50;74.40;;;;;;5047943;28;20034;-65
2020/12/03 05:48:33;;;;;;;50.42;20.58;;;0.60;74.20;;;;;;5027858;28;20040;-65
2020/12/03 05:50:58;;;;;;;50.50;20.15;;;0.40;74.00;;;;;;5045079;28;20125;-64
2020/12/03 05:53:26;;;;;;;50.22;20.27;;;0.40;73.70;;;;;;5042348;28;20104;-65
2020/12/03 05:55:51;;;;;;;49.38;20.40;;;0.40;74.10;;;;;;5043390;28;20026;-64
2020/12/03 05:58:30;;;;;;;46.88;19.65;;;0.40;74.10;;;;;;5043790;28;20228;-65
2020/12/03 06:01:07;;;;;;;52.08;20.27;;;0.40;74.10;;;;;;5026941;28;20026;-64
2020/12/03 06:03:59;;;;;;;48.47;19.33;;;0.40;73.80;;;;;;5025397;28;20105;-64
2020/12/03 06:06:52;;;;;;;53.53;20.35;;;0.30;73.60;;;;;;5041996;28;20061;-65
2020/12/03 06:09:42;;;;;;;48.22;20.02;;;0.30;73.70;;;;;;5043982;28;20343;-65
2020/12/03 06:12:22;;;;;;;52.65;20.70;;;0.20;73.70;;;;;;5042339;28;20355;-66
2020/12/03 06:15:15;;;;;;;49.83;19.13;;;0.20;73.70;;;;;;5042518;28;20033;-67
2020/12/03 06:18:18;;;;;;;49.45;20.50;;;0.20;73.70;;;;;;5043345;28;20097;-66
2020/12/03 06:20:53;;;;;;;46.22;19.75;;;0.20;73.60;;;;;;5042422;28;20232;-65
2020/12/03 06:23:52;;;;;;;49.13;19.52;;;0.10;73.80;;;;;;5044436;28;20033;-66
2020/12/03 06:26:43;;;;;;;54.05;20.42;;;0.00;73.60;;;;;;5021470;28;20041;-64
2020/12/03 06:29:46;;;;;;;53.70;21.00;;;0.00;74.40;;;;;;5042752;28;20151;-64
2020/12/03 06:32:33;;;;;;;52.50;20.75;;;0.00;74.70;;;;;;5042573;28;20037;-65
2020/12/03 06:35:17;;;;;;;52.60;21.35;;;0.00;75.00;;;;;;5043349;28;20355;-66
2020/12/03 06:38:15;;;;;;;50.90;21.23;;;0.10;74.80;;;;;;5042452;28;20029;-66
2020/12/03 06:40:43;;;;;;;58.92;22.08;;;0.20;75.00;;;;;;5041653;28;20092;-66
2020/12/03 06:43:16;;;;;;;50.97;20.38;;;0.20;75.10;;;;;;5045806;28;20030;-66
2020/12/03 06:45:52;;;;;;;57.65;22.10;;;0.20;75.00;;;;;;5042301;28;20045;-66
2020/12/03 06:48:49;;;;;;;58.17;22.02;;;0.20;75.10;;;;;;5041735;28;20034;-66
2020/12/03 06:51:22;;;;;;;52.03;21.55;;;0.30;75.30;;;;;;5042783;28;20065;-66
2020/12/03 06:54:10;;;;;;;58.13;22.33;;;0.30;75.30;;;;;;5042399;28;20092;-66
2020/12/03 06:57:23;;;;;;;58.03;21.67;;;0.30;75.10;;;;;;5034734;28;20048;-66
2020/12/03 07:00:09;;;;;;;59.70;22.38;;;0.20;75.60;;;;;;5011964;28;20084;-66
2020/12/03 07:03:13;;;;;;;54.95;21.40;;;0.30;75.50;;;;;;5006645;28;20046;-66
2020/12/03 07:05:47;;;;;;;58.80;22.05;;;0.40;75.10;;;;;;5030359;28;20099;-66
2020/12/03 07:08:39;;;;;;;57.35;22.33;;;0.30;75.20;;;;;;5042006;28;20040;-66
2020/12/03 07:11:24;;;;;;;49.88;21.77;;;0.30;75.30;;;;;;5037874;28;20053;-66
2020/12/03 07:14:11;;;;;;;58.72;22.92;;;0.40;75.20;;;;;;5024640;28;20085;-66
2020/12/03 07:17:01;;;;;;;56.83;23.00;;;0.40;75.20;;;;;;5025426;28;20030;-66
2020/12/03 07:20:02;;;;;;;56.58;22.50;;;0.40;75.10;;;;;;5024368;28;20392;-66
2020/12/03 07:22:35;;;;;;;55.70;23.20;;;0.40;74.90;;;;;;5016994;28;20034;-64
2020/12/03 07:25:01;;;;;;;54.60;21.60;;;0.50;74.90;;;;;;5041874;28;20037;-64
2020/12/03 07:27:37;;;;;;;55.33;23.08;;;0.60;74.80;;;;;;5028177;28;20041;-64
2020/12/03 07:30:19;;;;;;;52.72;22.42;;;0.80;74.20;;;;;;5030711;28;20375;-63
2020/12/03 07:32:48;;;;;;;58.35;22.83;;;0.90;73.90;;;;;;5038704;28;20075;-63
2020/12/03 07:35:45;;;;;;;57.28;22.77;;;0.90;73.80;;;;;;5040245;28;20224;-64
2020/12/03 07:38:28;;;;;;;53.13;21.90;;;1.10;73.60;;;;;;5035899;28;20099;-64
2020/12/03 07:40:55;;;;;;;54.33;21.45;;;1.20;73.10;;;;;;5045728;28;20284;-64
2020/12/03 07:43:23;;;;;;;52.70;22.35;;;1.10;73.20;;;;;;5041641;28;20037;-64
2020/12/03 07:45:49;;;;;;;53.15;21.95;;;1.10;72.80;;;;;;5039482;28;20041;-63
2020/12/03 07:48:22;;;;;;;51.80;21.85;;;1.10;73.20;;;;;;5042149;28;20045;-63
2020/12/03 07:51:03;;;;;;;55.90;22.70;;;1.20;72.80;;;;;;5041131;28;20288;-64
2020/12/03 07:53:29;;;;;;;52.10;21.23;;;1.20;73.00;;;;;;5042683;28;20058;-63
2020/12/03 07:55:55;;;;;;;50.33;20.08;;;1.20;73.00;;;;;;5043154;28;20025;-64
2020/12/03 07:58:37;;;;;;;51.45;21.50;;;1.30;73.20;;;;;;5040274;28;20044;-64
2020/12/03 08:01:21;;;;;;;50.72;21.55;;;1.40;73.00;;;;;;5042254;28;20253;-64
2020/12/03 08:03:47;;;;;;;51.97;20.80;;;1.20;72.60;;;;;;5026005;28;20103;-64
2020/12/03 08:06:19;;;;;;;51.67;21.75;;;1.30;72.80;;;;;;5022683;28;20038;-63
2020/12/03 08:09:00;;;;;;;47.72;21.70;;;1.60;73.20;;;;;;5022145;28;20040;-64
2020/12/03 08:11:55;;;;;;;54.38;22.48;;;1.70;72.10;;;;;;5044795;28;20099;-63
2020/12/03 08:14:41;;;;;;;54.65;21.65;;;1.80;72.20;;;;;;5020783;28;20313;-64
2020/12/03 08:17:26;;;;;;;50.13;21.30;;;1.90;72.00;;;;;;5042590;28;20029;-64
2020/12/03 08:20:06;;;;;;;47.90;20.33;;;2.00;71.60;;;;;;5041478;28;20048;-64
2020/12/03 08:22:34;;;;;;;48.90;22.42;;;2.00;71.70;;;;;;5036083;28;20060;-64
2020/12/03 08:25:18;;;;;;;46.35;21.52;;;2.10;71.40;;;;;;5041521;28;20386;-64
2020/12/03 08:28:00;;;;;;;47.20;20.05;;;2.00;71.70;;;;;;5039496;28;20030;-64
2020/12/03 08:33:04;;;;;;;44.97;20.55;;;2.20;71.50;;;;;;5039792;28;20025;-63
2020/12/03 08:35:30;;;;;;;40.38;19.27;;;2.30;71.40;;;;;;5044519;28;20044;-62
2020/12/03 08:37:56;;;;;;;41.85;18.80;;;2.40;70.90;;;;;;5039572;28;20053;-65
2020/12/03 08:40:21;;;;;;;45.95;19.65;;;2.50;70.80;;;;;;5038733;28;20034;-65
2020/12/03 08:42:47;;;;;;;42.83;19.50;;;2.60;70.40;;;;;;5041064;28;20029;-64
2020/12/03 08:45:13;;;;;;;41.83;19.17;;;2.80;70.50;;;;;;5036422;28;20225;-63
2020/12/03 08:47:42;;;;;;;37.70;18.90;;;2.80;69.30;;;;;;5043292;28;20033;-62
2020/12/03 08:50:15;;;;;;;39.85;18.85;;;2.70;70.10;;;;;;5041627;28;20032;-62
2020/12/03 08:52:40;;;;;;;40.63;18.85;;;2.90;70.10;;;;;;5040499;28;20045;-64
2020/12/03 08:55:06;;;;;;;40.13;19.02;;;2.90;69.60;;;;;;5040406;28;20040;-64
2020/12/03 08:57:36;;;;;;;39.55;18.17;;;2.90;70.40;;;;;;5040980;28;20072;-63
2020/12/03 09:00:02;;;;;;;36.13;16.90;;;3.00;69.50;;;;;;5043378;28;20040;-62
2020/12/03 09:02:27;;;;;;;35.80;18.60;;;2.90;68.90;;;;;;5038148;28;20033;-63
2020/12/03 09:04:54;;;;;;;34.10;17.08;;;3.10;69.40;;;;;;5040235;28;20040;-62
2020/12/03 09:07:21;;;;;;;33.92;16.67;;;3.30;69.80;;;;;;5040363;28;20037;-61
2020/12/03 09:09:47;;;;;;;39.35;18.98;;;3.30;68.10;;;;;;5040457;28;20030;-62
2020/12/03 09:12:15;;;;;;;35.00;16.95;;;3.40;68.30;;;;;;5042608;28;20332;-63
2020/12/03 09:14:41;;;;;;;36.47;18.13;;;3.40;68.50;;;;;;5039868;28;20100;-64
2020/12/03 09:17:09;;;;;;;36.00;17.00;;;3.30;67.30;;;;;;5038359;28;20034;-63
2020/12/03 09:19:35;;;;;;;33.50;16.95;;;3.30;68.00;;;;;;5040869;28;20333;-62
2020/12/03 09:22:02;;;;;;;37.33;17.90;;;3.40;67.90;;;;;;5042054;28;20045;-62
2020/12/03 09:24:28;;;;;;;36.92;17.83;;;3.30;67.20;;;;;;5036215;28;20147;-62
2020/12/03 09:26:57;;;;;;;35.25;18.10;;;3.40;67.90;;;;;;5044026;28;20220;-62
2020/12/03 09:29:22;;;;;;;37.25;17.60;;;3.30;67.50;;;;;;5040014;28;20038;-62
2020/12/03 09:31:48;;;;;;;37.58;17.70;;;3.30;68.20;;;;;;5040180;28;20139;-62
2020/12/03 09:34:13;;;;;;;35.42;16.52;;;3.00;68.20;;;;;;5039991;28;20037;-64
2020/12/03 09:36:39;;;;;;;32.97;17.65;;;3.30;67.80;;;;;;5040372;28;20077;-63
2020/12/03 09:39:05;;;;;;;31.92;16.65;;;3.20;67.50;;;;;;5042660;28;20131;-63
2020/12/03 09:41:31;;;;;;;33.13;16.08;;;3.10;68.90;;;;;;5039244;28;20045;-72
2020/12/03 09:43:59;;;;;;;33.65;17.45;;;3.30;68.40;;;;;;5040024;28;20087;-64
2020/12/03 09:46:27;;;;;;;34.05;16.70;;;3.40;68.40;;;;;;5040786;28;20368;-62
2020/12/03 09:48:55;;;;;;;32.05;16.90;;;3.30;67.60;;;;;;5039515;28;20040;-62
2020/12/03 09:51:21;;;;;;;33.35;16.48;;;3.40;68.10;;;;;;5042610;28;20339;-62
2020/12/03 09:53:48;;;;;;;34.25;16.67;;;3.40;67.10;;;;;;5041464;28;20029;-60
2020/12/03 09:56:13;;;;;;;30.67;15.95;;;3.40;67.40;;;;;;5039328;28;20036;-64
2020/12/03 09:58:39;;;;;;;31.40;16.05;;;3.50;67.20;;;;;;5040603;28;20030;-65
2020/12/03 10:01:06;;;;;;;33.83;17.15;;;3.50;67.10;;;;;;5037491;28;20026;-65
2020/12/03 10:04:05;;;;;;;35.95;17.88;;;3.60;67.50;;;;;;5042486;28;20089;-65
2020/12/03 10:06:39;;;;;;;33.20;17.40;;;3.60;67.40;;;;;;5002641;28;20237;-64
2020/12/03 10:09:32;;;;;;;31.17;15.98;;;3.50;66.20;;;;;;5038718;28;20044;-63
2020/12/03 10:12:22;;;;;;;29.70;15.55;;;3.40;67.30;;;;;;5039819;28;20394;-63
2020/12/03 10:14:54;;;;;;;32.63;16.05;;;3.40;66.90;;;;;;5040769;28;20340;-62
2020/12/03 10:17:19;;;;;;;29.73;15.00;;;3.50;65.90;;;;;;5038572;28;20325;-62
2020/12/03 10:19:46;;;;;;;27.85;15.63;;;3.50;66.10;;;;;;5041344;28;20056;-63
2020/12/03 10:22:24;;;;;;;31.13;15.43;;;3.50;66.20;;;;;;5043240;28;20037;-63
2020/12/03 10:25:03;;;;;;;28.42;15.50;;;3.60;66.10;;;;;;5046882;28;20212;-63
2020/12/03 10:27:40;;;;;;;28.55;15.20;;;3.60;66.70;;;;;;5044141;28;20040;-63
2020/12/03 10:30:09;;;;;;;29.77;14.80;;;3.50;66.30;;;;;;5043852;28;20217;-63
2020/12/03 10:32:43;;;;;;;27.33;13.95;;;3.60;65.50;;;;;;5043813;28;20042;-63
2020/12/03 10:35:09;;;;;;;25.33;13.10;;;3.60;66.10;;;;;;5041729;28;20079;-66
2020/12/03 10:37:50;;;;;;;25.67;13.65;;;3.80;64.90;;;;;;5044388;28;20352;-63
2020/12/03 10:40:18;;;;;;;25.20;13.45;;;3.60;64.80;;;;;;5025898;28;20104;-63
2020/12/03 10:42:48;;;;;;;25.63;14.45;;;3.80;65.30;;;;;;5046201;28;20343;-64
2020/12/03 10:45:19;;;;;;;25.30;13.90;;;3.80;64.80;;;;;;5041611;28;20336;-65
2020/12/03 10:48:07;;;;;;;24.50;13.85;;;3.90;65.10;;;;;;5043318;28;20099;-64
2020/12/03 10:51:03;;;;;;;25.98;14.20;;;4.00;64.90;;;;;;5039086;28;20069;-64
2020/12/03 10:53:30;;;;;;;24.73;13.15;;;4.00;64.30;;;;;;5025583;28;20041;-64
2020/12/03 10:55:59;;;;;;;25.42;13.77;;;4.00;63.40;;;;;;5043358;28;20124;-64
2020/12/03 10:58:44;;;;;;;25.77;13.90;;;4.00;64.20;;;;;;5043588;28;20037;-64
2020/12/03 11:01:24;;;;;;;28.90;13.82;;;4.10;64.20;;;;;;5046353;28;20025;-63
2020/12/03 11:03:51;;;;;;;29.40;14.43;;;4.10;63.40;;;;;;5038589;28;20084;-62
2020/12/03 11:06:22;;;;;;;24.98;14.48;;;4.10;63.30;;;;;;5042525;28;20064;-63
2020/12/03 11:08:47;;;;;;;25.67;14.57;;;3.90;63.20;;;;;;5043100;28;20064;-62
2020/12/03 11:11:13;;;;;;;29.88;15.38;;;4.20;65.00;;;;;;5036679;28;20053;-62
2020/12/03 11:13:40;;;;;;;27.50;15.05;;;4.40;63.90;;;;;;5042132;28;20053;-62
2020/12/03 11:16:06;;;;;;;28.63;15.25;;;4.40;64.10;;;;;;5028782;28;20347;-63
2020/12/03 11:18:44;;;;;;;26.52;14.27;;;4.60;63.00;;;;;;5042330;28;20121;-63
2020/12/03 11:21:24;;;;;;;26.83;13.98;;;4.40;63.50;;;;;;5040661;28;20056;-63
2020/12/03 11:24:17;;;;;;;26.65;15.55;;;4.80;63.30;;;;;;5043072;28;20041;-63
2020/12/03 11:26:44;;;;;;;24.17;13.07;;;4.90;61.90;;;;;;5042492;28;20034;-62
2020/12/03 11:29:11;;;;;;;24.05;14.00;;;4.70;60.70;;;;;;5042424;28;20139;-62
2020/12/03 11:31:37;;;;;;;25.27;14.50;;;4.60;61.30;;;;;;5044412;28;20256;-62
2020/12/03 11:34:02;;;;;;;28.88;14.52;;;4.80;62.10;;;;;;5040426;28;20057;-63
2020/12/03 11:36:39;;;;;;;24.60;13.88;;;4.90;60.90;;;;;;5042543;28;20279;-63
2020/12/03 11:39:08;;;;;;;24.90;13.50;;;5.00;60.10;;;;;;5041892;28;20034;-61
2020/12/03 11:47:19;;;;;;;22.05;12.80;;;5.00;61.40;;;;;;5023959;28;20049;-63
2020/12/03 11:49:43;;;;;;;23.25;12.75;;;5.30;59.40;;;;;;5045214;28;20264;-62
2020/12/03 11:52:12;;;;;;;22.05;13.63;;;5.40;59.30;;;;;;5036321;28;20112;-63
2020/12/03 11:54:38;;;;;;;24.05;12.82;;;5.40;58.10;;;;;;5042184;28;20033;-63
2020/12/03 11:57:04;;;;;;;22.15;12.55;;;5.60;59.50;;;;;;5042958;28;20038;-63
2020/12/03 11:59:31;;;;;;;22.52;13.10;;;5.90;58.20;;;;;;5042356;28;20044;-62
2020/12/03 12:02:04;;;;;;;23.75;12.85;;;5.80;57.80;;;;;;5042812;28;20032;-65
2020/12/03 12:04:49;;;;;;;20.75;11.80;;;6.20;57.10;;;;;;5045169;28;20036;-62
2020/12/03 12:07:37;;;;;;;25.17;13.70;;;6.20;56.90;;;;;;5043402;28;20095;-65
2020/12/03 12:12:46;;;;;;;23.60;13.88;;;6.30;55.90;;;;;;5041740;28;20121;-66
2020/12/03 12:15:12;;;;;;;23.48;14.15;;;6.30;56.70;;;;;;5042496;28;20041;-65
2020/12/03 12:17:38;;;;;;;24.02;13.50;;;6.30;56.00;;;;;;5042151;28;20052;-65
2020/12/03 12:20:09;;;;;;;23.80;13.43;;;6.10;57.10;;;;;;5042351;28;20036;-66
2020/12/03 12:22:35;;;;;;;23.07;13.47;;;6.10;55.80;;;;;;5044966;28;20034;-65
2020/12/03 12:25:00;;;;;;;23.13;13.00;;;6.10;57.80;;;;;;5041836;28;20279;-65
2020/12/03 12:27:26;;;;;;;23.27;13.48;;;6.20;56.80;;;;;;5041293;28;20231;-65
2020/12/03 12:29:51;;;;;;;19.20;12.48;;;6.00;55.30;;;;;;5042192;28;20025;-65
2020/12/03 12:32:17;;;;;;;21.88;12.63;;;5.80;55.20;;;;;;5041296;28;20041;-66
2020/12/03 12:34:43;;;;;;;21.17;12.45;;;5.60;55.80;;;;;;5044718;28;20053;-65
2020/12/03 12:37:09;;;;;;;23.38;12.43;;;5.40;55.30;;;;;;5042240;28;20080;-66
2020/12/03 12:39:35;;;;;;;21.80;11.82;;;5.30;56.00;;;;;;5040249;28;20243;-65
2020/12/03 12:42:01;;;;;;;21.80;11.93;;;5.60;56.30;;;;;;5041351;28;20029;-65
2020/12/03 12:44:27;;;;;;;22.25;12.02;;;5.60;57.40;;;;;;5041367;28;20029;-65
2020/12/03 12:46:56;;;;;;;22.60;11.65;;;5.80;56.50;;;;;;5045156;28;20040;-68
2020/12/03 12:49:22;;;;;;;20.98;11.95;;;5.60;56.60;;;;;;5036066;28;20048;-67
2020/12/03 12:51:47;;;;;;;20.25;11.38;;;5.60;56.30;;;;;;5039942;28;20044;-67
2020/12/03 12:54:13;;;;;;;17.42;11.30;;;5.60;57.70;;;;;;5041877;28;20136;-68
2020/12/03 12:56:39;;;;;;;18.35;11.13;;;5.80;56.00;;;;;;5041322;28;20047;-67
2020/12/03 12:59:04;;;;;;;20.48;10.93;;;5.90;55.50;;;;;;5044118;28;20048;-68
2020/12/03 13:01:30;;;;;;;19.95;10.65;;;5.80;55.60;;;;;;5041500;28;20041;-65
2020/12/03 13:03:56;;;;;;;18.38;10.60;;;5.50;54.20;;;;;;5039503;28;20354;-65
2020/12/03 13:06:21;;;;;;;17.63;10.10;;;5.40;53.90;;;;;;5041324;28;20113;-65
2020/12/03 13:08:47;;;;;;;18.02;10.00;;;5.30;54.10;;;;;;5039132;28;20045;-66